createdAt,value
2022-11-14T00:01:49.040Z,92.69
2022-11-14T00:04:10.481Z,92.32
2022-11-14T00:06:32.271Z,91.75
2022-11-14T00:08:53.710Z,91.07
2022-11-14T00:11:15.165Z,91.29
2022-11-14T00:13:36.664Z,91.09
2022-11-14T00:15:58.130Z,91.14
2022-11-14T00:18:20.219Z,92.16
2022-11-14T00:20:41.651Z,93.34
2022-11-14T00:23:03.197Z,93.46
2022-11-14T00:25:24.820Z,94.20
2022-11-14T00:27:46.283Z,94.09
2022-11-14T00:30:08.261Z,93.75
2022-11-14T00:32:31.251Z,92.81
2022-11-14T00:34:52.682Z,92.69
2022-11-14T00:37:14.193Z,92.79
2022-11-14T00:39:35.692Z,92.57
2022-11-14T00:41:57.131Z,92.61
2022-11-14T00:44:18.579Z,93.17
2022-11-14T00:46:40.092Z,92.84
2022-11-14T00:49:01.595Z,93.55
2022-11-14T00:51:23.206Z,93.95
2022-11-14T00:53:44.646Z,94.60
2022-11-14T00:56:06.333Z,95.40
2022-11-14T00:58:28.268Z,96.20
2022-11-14T01:00:49.978Z,95.76
2022-11-14T01:03:11.513Z,96.11
2022-11-14T01:05:32.997Z,96.25
2022-11-14T01:07:54.523Z,96.25
2022-11-14T01:10:17.021Z,96.92
2022-11-14T01:12:38.441Z,95.99
2022-11-14T01:14:59.903Z,95.88
2022-11-14T01:17:21.666Z,95.96
2022-11-14T01:19:43.107Z,96.33
2022-11-14T01:22:06.499Z,96.20
2022-11-14T01:24:28.262Z,95.70
2022-11-14T01:26:49.733Z,97.07
2022-11-14T01:29:11.245Z,97.19
2022-11-14T01:31:32.697Z,97.16
2022-11-14T01:33:54.398Z,98.13
2022-11-14T01:36:16.592Z,98.15
2022-11-14T01:38:38.123Z,98.37
2022-11-14T01:41:00.343Z,98.63
2022-11-14T01:43:24.462Z,99.03
2022-11-14T01:46:02.525Z,98.68
2022-11-14T01:48:41.574Z,97.31
2022-11-14T01:51:42.768Z,97.34
2022-11-14T01:54:10.571Z,98.09
2022-11-14T01:56:36.958Z,97.94
2022-11-14T01:59:04.739Z,96.76
2022-11-14T02:01:29.629Z,97.60
2022-11-14T02:03:53.115Z,97.20
2022-11-14T02:06:18.451Z,96.08
2022-11-14T02:08:40.757Z,96.52
2022-11-14T02:11:02.216Z,97.37
2022-11-14T02:13:23.819Z,98.08
2022-11-14T02:15:45.299Z,98.07
2022-11-14T02:18:06.735Z,98.52
2022-11-14T02:20:32.946Z,98.88
2022-11-14T02:22:54.653Z,98.56
2022-11-14T02:25:18.625Z,98.26
2022-11-14T02:27:40.453Z,97.97
2022-11-14T02:30:17.302Z,97.32
2022-11-14T02:35:20.494Z,98.42
2022-11-14T02:37:42.222Z,97.76
2022-11-14T02:40:04.560Z,97.80
2022-11-14T02:42:26.046Z,97.34
2022-11-14T02:44:47.508Z,97.49
2022-11-14T02:47:08.929Z,97.62
2022-11-14T02:49:30.366Z,97.44
2022-11-14T02:51:51.771Z,96.60
2022-11-14T02:54:13.280Z,96.17
2022-11-14T02:56:35.083Z,96.15
2022-11-14T02:58:56.564Z,95.81
2022-11-14T03:01:21.212Z,95.80
2022-11-14T03:03:43.038Z,95.20
2022-11-14T03:06:05.045Z,94.81
2022-11-14T03:08:26.821Z,94.58
2022-11-14T03:10:48.347Z,93.64
2022-11-14T03:13:09.800Z,93.22
2022-11-14T03:15:31.241Z,93.53
2022-11-14T03:17:52.761Z,93.50
2022-11-14T03:20:14.262Z,93.32
2022-11-14T03:22:35.784Z,93.10
2022-11-14T03:24:57.249Z,93.17
2022-11-14T03:27:19.289Z,92.28
2022-11-14T03:29:40.786Z,91.54
2022-11-14T03:32:02.218Z,91.74
2022-11-14T03:34:23.689Z,91.57
2022-11-14T03:36:45.267Z,91.41
2022-11-14T03:39:06.810Z,91.22
2022-11-14T03:41:28.251Z,91.61
2022-11-14T03:43:49.704Z,91.39
2022-11-14T03:46:11.142Z,91.40
2022-11-14T03:48:33.043Z,92.01
2022-11-14T03:50:55.069Z,92.26
2022-11-14T03:53:16.508Z,93.04
2022-11-14T03:55:38.942Z,93.30
2022-11-14T03:58:00.647Z,93.72
2022-11-14T04:00:22.214Z,93.09
2022-11-14T04:02:43.700Z,92.87
2022-11-14T04:05:05.288Z,92.32
2022-11-14T04:07:26.780Z,92.07
2022-11-14T04:09:48.319Z,91.31
2022-11-14T04:12:14.416Z,91.02
2022-11-14T04:14:37.255Z,91.14
2022-11-14T04:16:58.686Z,90.90
2022-11-14T04:19:20.122Z,91.03
2022-11-14T04:21:41.599Z,90.96
2022-11-14T04:24:05.920Z,90.92
2022-11-14T04:26:31.376Z,90.42
2022-11-14T04:28:52.801Z,90.88
2022-11-14T04:31:14.247Z,90.71
2022-11-14T04:33:35.701Z,90.75
2022-11-14T04:35:57.143Z,90.36
2022-11-14T04:38:18.639Z,90.08
2022-11-14T04:40:40.046Z,89.62
2022-11-14T04:43:01.513Z,89.19
2022-11-14T04:45:23.096Z,89.22
2022-11-14T04:47:44.663Z,88.86
2022-11-14T04:50:06.681Z,89.55
2022-11-14T04:52:28.622Z,89.81
2022-11-14T04:54:50.046Z,90.38
2022-11-14T04:57:11.500Z,89.93
2022-11-14T04:59:32.999Z,89.56
2022-11-14T05:01:54.494Z,90.04
2022-11-14T05:04:15.973Z,89.55
2022-11-14T05:06:37.388Z,89.62
2022-11-14T05:08:58.885Z,89.52
2022-11-14T05:11:24.173Z,89.44
2022-11-14T05:13:49.467Z,89.35
2022-11-14T05:16:11.419Z,89.42
2022-11-14T05:18:33.030Z,88.88
2022-11-14T05:20:58.331Z,89.17
2022-11-14T05:23:22.810Z,88.90
2022-11-14T05:25:44.236Z,88.58
2022-11-14T05:28:05.682Z,89.26
2022-11-14T05:30:27.152Z,88.71
2022-11-14T05:32:48.653Z,88.90
2022-11-14T05:35:10.441Z,88.70
2022-11-14T05:37:32.087Z,88.87
2022-11-14T05:39:53.557Z,89.18
2022-11-14T05:42:15.014Z,89.28
2022-11-14T05:44:36.462Z,90.02
2022-11-14T05:46:58.065Z,90.05
2022-11-14T05:49:22.074Z,89.75
2022-11-14T05:51:43.790Z,89.71
2022-11-14T05:54:05.432Z,90.27
2022-11-14T05:56:26.957Z,90.09
2022-11-14T05:58:48.420Z,90.29
2022-11-14T06:01:15.589Z,90.07
2022-11-14T06:03:39.539Z,89.75
2022-11-14T06:06:06.349Z,89.09
2022-11-14T06:08:29.757Z,88.86
2022-11-14T06:10:51.578Z,88.81
2022-11-14T06:13:13.120Z,88.57
2022-11-14T06:15:34.531Z,90.70
2022-11-14T06:17:56.069Z,94.67
2022-11-14T06:20:17.625Z,95.08
2022-11-14T06:22:40.533Z,95.38
2022-11-14T06:25:02.871Z,98.48
2022-11-14T06:27:24.518Z,98.40
2022-11-14T06:29:45.942Z,98.89
2022-11-14T06:32:07.380Z,100.00
2022-11-14T06:34:28.861Z,99.25
2022-11-14T06:36:50.322Z,100.00
2022-11-14T06:39:11.812Z,100.00
2022-11-14T06:41:33.274Z,100.00
2022-11-14T06:43:54.862Z,100.00
2022-11-14T06:46:19.401Z,100.00
2022-11-14T06:48:42.523Z,100.00
2022-11-14T06:51:05.340Z,100.00
2022-11-14T06:53:29.176Z,99.61
2022-11-14T06:56:04.077Z,100.00
2022-11-14T06:58:30.548Z,100.00
2022-11-14T07:00:52.208Z,100.00
2022-11-14T07:03:13.754Z,99.23
2022-11-14T07:05:35.193Z,98.27
2022-11-14T07:07:57.698Z,99.13
2022-11-14T07:10:19.112Z,98.19
2022-11-14T07:12:40.544Z,98.18
2022-11-14T07:15:01.973Z,97.72
2022-11-14T07:17:27.143Z,97.51
2022-11-14T07:19:51.398Z,96.94
2022-11-14T07:22:12.860Z,96.58
2022-11-14T07:24:35.172Z,96.78
2022-11-14T07:26:56.632Z,96.61
2022-11-14T07:29:18.138Z,96.71
2022-11-14T07:31:40.641Z,97.32
2022-11-14T07:34:02.114Z,96.94
2022-11-14T07:36:24.338Z,96.67
2022-11-14T07:38:45.904Z,96.18
2022-11-14T07:41:13.260Z,95.84
2022-11-14T07:43:34.891Z,95.74
2022-11-14T07:46:03.901Z,95.21
2022-11-14T07:48:25.434Z,95.84
2022-11-14T07:50:47.660Z,95.85
2022-11-14T07:53:09.386Z,94.77
2022-11-14T07:55:30.825Z,93.99
2022-11-14T07:57:53.798Z,95.19
2022-11-14T08:00:15.560Z,95.61
2022-11-14T08:02:37.069Z,95.33
2022-11-14T08:04:58.578Z,94.88
2022-11-14T08:07:20.094Z,94.49
2022-11-14T08:09:41.605Z,94.66
2022-11-14T08:12:03.193Z,92.96
2022-11-14T08:14:24.641Z,92.64
2022-11-14T08:16:46.091Z,92.49
2022-11-14T08:19:07.755Z,92.46
2022-11-14T08:21:29.173Z,94.17
2022-11-14T08:23:50.604Z,94.66
2022-11-14T08:26:12.039Z,95.42
2022-11-14T08:28:33.965Z,93.55
2022-11-14T08:31:00.247Z,93.51
2022-11-14T08:33:21.709Z,93.16
2022-11-14T08:35:43.146Z,93.36
2022-11-14T08:38:04.587Z,93.05
2022-11-14T08:40:26.380Z,93.43
2022-11-14T08:42:47.877Z,95.21
2022-11-14T08:45:09.657Z,95.37
2022-11-14T08:47:31.124Z,94.80
2022-11-14T08:49:52.594Z,94.73
2022-11-14T08:52:16.802Z,95.56
2022-11-14T08:54:38.644Z,95.19
2022-11-14T08:57:00.104Z,95.94
2022-11-14T08:59:21.592Z,95.69
2022-11-14T09:01:43.179Z,95.53
2022-11-14T09:04:05.024Z,95.76
2022-11-14T09:06:26.581Z,95.61
2022-11-14T09:08:48.021Z,96.46
2022-11-14T09:11:10.180Z,95.53
2022-11-14T09:13:35.555Z,95.15
2022-11-14T09:15:57.062Z,95.30
2022-11-14T09:18:18.571Z,94.81
2022-11-14T09:20:40.679Z,94.48
2022-11-14T09:23:03.077Z,92.71
2022-11-14T09:25:26.469Z,92.95
2022-11-14T09:27:47.994Z,91.81
2022-11-14T09:30:10.791Z,91.92
2022-11-14T09:32:32.292Z,91.48
2022-11-14T09:34:53.767Z,90.75
2022-11-14T09:37:15.256Z,91.24
2022-11-14T09:39:40.483Z,90.68
2022-11-14T09:42:39.182Z,91.04
2022-11-14T09:45:03.011Z,92.07
2022-11-14T09:47:42.423Z,93.17
2022-11-14T09:50:26.204Z,92.54
2022-11-14T09:52:54.898Z,92.92
2022-11-14T09:55:36.633Z,92.42
2022-11-14T09:58:01.072Z,92.55
2022-11-14T10:00:25.078Z,93.02
2022-11-14T10:03:01.619Z,93.81
2022-11-14T10:06:01.859Z,93.00
2022-11-14T10:08:59.984Z,92.96
2022-11-14T10:11:47.064Z,94.41
2022-11-14T10:14:29.999Z,93.90
2022-11-14T10:17:10.489Z,93.11
2022-11-14T10:19:46.265Z,92.94
2022-11-14T10:22:37.572Z,91.99
2022-11-14T10:25:07.196Z,92.55
2022-11-14T10:27:43.092Z,92.10
2022-11-14T10:30:16.820Z,92.25
2022-11-14T10:33:10.741Z,91.22
2022-11-14T10:35:53.251Z,90.45
2022-11-14T10:38:19.547Z,89.76
2022-11-14T10:40:47.177Z,90.66
2022-11-14T10:43:40.630Z,89.17
2022-11-14T10:46:17.012Z,89.21
2022-11-14T10:48:48.863Z,88.19
2022-11-14T10:51:13.210Z,88.87
2022-11-14T10:54:19.169Z,88.91
2022-11-14T10:56:54.703Z,87.32
2022-11-14T10:59:16.653Z,87.29
2022-11-14T11:01:46.484Z,87.01
2022-11-14T11:04:22.828Z,86.59
2022-11-14T11:06:44.378Z,87.29
2022-11-14T11:09:45.102Z,86.74
2022-11-14T11:12:08.811Z,85.64
2022-11-14T11:14:30.998Z,85.28
2022-11-14T11:17:08.907Z,83.24
2022-11-14T11:19:30.972Z,83.63
2022-11-14T11:21:53.122Z,83.67
2022-11-14T11:24:31.174Z,82.95
2022-11-14T11:27:20.929Z,81.34
2022-11-14T11:29:42.425Z,83.07
2022-11-14T11:32:04.171Z,82.19
2022-11-14T11:34:28.057Z,81.66
2022-11-14T11:36:55.693Z,80.97
2022-11-14T11:39:25.593Z,81.30
2022-11-14T11:44:38.117Z,81.02
2022-11-14T11:47:03.018Z,81.89
2022-11-14T11:49:30.360Z,81.71
2022-11-14T11:51:55.512Z,83.08
2022-11-14T11:54:19.762Z,82.42
2022-11-14T11:56:44.075Z,82.67
2022-11-14T11:59:26.590Z,83.03
2022-11-14T12:01:48.551Z,82.72
2022-11-14T12:04:10.208Z,82.66
2022-11-14T12:06:41.663Z,81.96
2022-11-14T12:09:12.160Z,81.51
2022-11-14T12:11:37.791Z,82.08
2022-11-14T12:14:36.268Z,81.58
2022-11-14T12:17:04.642Z,80.53
2022-11-14T12:19:26.012Z,79.79
2022-11-14T12:22:12.202Z,80.24
2022-11-14T12:24:48.810Z,78.67
2022-11-14T12:27:39.085Z,78.80
2022-11-14T12:30:09.818Z,77.06
2022-11-14T12:32:42.404Z,76.81
2022-11-14T12:35:06.305Z,78.15
2022-11-14T12:37:37.947Z,78.51
2022-11-14T12:40:08.773Z,77.92
2022-11-14T12:42:31.748Z,76.32
2022-11-14T12:44:53.270Z,76.68
2022-11-14T12:47:20.745Z,76.81
2022-11-14T12:49:47.913Z,74.54
2022-11-14T12:52:41.264Z,74.54
2022-11-14T12:55:02.751Z,74.13
2022-11-14T12:57:48.000Z,74.00
2022-11-14T13:00:10.034Z,75.48
2022-11-14T13:03:03.314Z,76.55
2022-11-14T13:05:39.306Z,75.83
2022-11-14T13:08:27.518Z,73.91
2022-11-14T13:10:48.964Z,74.55
2022-11-14T13:13:34.901Z,74.19
2022-11-14T13:16:20.186Z,73.74
2022-11-14T13:19:18.494Z,72.84
2022-11-14T13:22:11.809Z,72.34
2022-11-14T13:25:02.605Z,73.08
2022-11-14T13:28:00.660Z,72.39
2022-11-14T13:30:16.377Z,73.13
2022-11-14T13:32:40.742Z,72.17
2022-11-14T13:35:11.740Z,72.52
2022-11-14T13:38:04.113Z,72.77
2022-11-14T13:40:28.617Z,71.35
2022-11-14T13:43:04.613Z,72.06
2022-11-14T13:45:37.986Z,72.86
2022-11-14T13:48:30.591Z,71.48
2022-11-14T13:51:00.711Z,71.39
2022-11-14T13:53:32.387Z,70.98
2022-11-14T13:56:04.451Z,69.73
2022-11-14T13:58:59.316Z,68.92
2022-11-14T14:01:30.017Z,69.18
2022-11-14T14:04:28.099Z,69.15
2022-11-14T14:07:16.471Z,70.73
2022-11-14T14:10:02.214Z,70.90
2022-11-14T14:12:45.415Z,70.07
2022-11-14T14:15:25.029Z,70.16
2022-11-14T14:18:05.611Z,70.30
2022-11-14T14:20:36.159Z,69.24
2022-11-14T14:23:27.417Z,71.27
2022-11-14T14:26:00.272Z,69.25
2022-11-14T14:28:41.373Z,70.09
2022-11-14T14:31:20.076Z,70.32
2022-11-14T14:33:42.708Z,69.14
2022-11-14T14:36:04.426Z,69.07
2022-11-14T14:38:28.379Z,70.19
2022-11-14T14:40:50.150Z,70.21
2022-11-14T14:43:25.672Z,70.33
2022-11-14T14:45:51.327Z,70.39
2022-11-14T14:48:21.752Z,70.43
2022-11-14T14:50:50.028Z,70.04
2022-11-14T14:53:24.108Z,69.74
2022-11-14T14:55:56.371Z,70.41
2022-11-14T14:58:24.799Z,71.74
2022-11-14T15:01:07.225Z,72.28
2022-11-14T15:03:37.807Z,72.31
2022-11-14T15:06:01.058Z,72.19
2022-11-14T15:08:22.544Z,73.17
2022-11-14T15:10:44.740Z,73.74
2022-11-14T15:13:06.344Z,73.97
2022-11-14T15:15:28.462Z,74.38
2022-11-14T15:17:50.338Z,74.21
2022-11-14T15:20:23.566Z,74.10
2022-11-14T15:23:02.589Z,74.53
2022-11-14T15:25:24.084Z,75.48
2022-11-14T15:27:50.001Z,76.30
2022-11-14T15:30:25.374Z,77.71
2022-11-14T15:32:52.081Z,79.08
2022-11-14T15:35:24.843Z,79.17
2022-11-14T15:41:20.693Z,82.35
2022-11-14T15:43:45.204Z,81.68
2022-11-14T15:46:43.535Z,81.29
2022-11-14T15:49:11.190Z,82.22
2022-11-14T15:51:39.820Z,81.99
2022-11-14T15:54:01.329Z,82.70
2022-11-14T15:56:23.551Z,82.32
2022-11-14T15:58:49.153Z,81.86
2022-11-14T16:01:18.356Z,81.32
2022-11-14T16:03:39.997Z,80.67
2022-11-14T16:06:01.447Z,80.73
2022-11-14T16:08:22.896Z,80.76
2022-11-14T16:10:44.879Z,80.63
2022-11-14T16:13:06.637Z,81.36
2022-11-14T16:15:28.315Z,81.87
2022-11-14T16:17:50.879Z,83.07
2022-11-14T16:20:19.445Z,84.13
2022-11-14T16:22:40.876Z,86.18
2022-11-14T16:25:02.595Z,86.77
2022-11-14T16:27:24.035Z,86.70
2022-11-14T16:29:45.596Z,87.55
2022-11-14T16:32:10.301Z,88.87
2022-11-14T16:34:31.758Z,89.09
2022-11-14T16:37:02.970Z,89.71
2022-11-14T16:39:24.428Z,89.20
2022-11-14T16:41:45.958Z,88.70
2022-11-14T16:44:13.750Z,88.98
2022-11-14T16:46:35.223Z,88.22
2022-11-14T16:48:56.693Z,87.59
2022-11-14T16:51:46.127Z,86.01
2022-11-14T16:53:59.556Z,84.68
2022-11-14T16:56:21.015Z,84.38
2022-11-14T16:58:42.424Z,84.10
2022-11-14T17:01:06.557Z,83.13
2022-11-14T17:03:32.211Z,82.73
2022-11-14T17:05:53.967Z,81.87
2022-11-14T17:08:15.707Z,81.68
2022-11-14T17:10:44.482Z,82.57
2022-11-14T17:13:05.958Z,82.88
2022-11-14T17:15:27.395Z,82.65
2022-11-14T17:17:50.225Z,82.22
2022-11-14T17:20:11.809Z,82.42
2022-11-14T17:22:33.239Z,83.41
2022-11-14T17:24:54.838Z,83.76
2022-11-14T17:27:16.394Z,83.99
2022-11-14T17:29:37.847Z,85.29
2022-11-14T17:31:59.309Z,85.86
2022-11-14T17:34:20.854Z,85.92
2022-11-14T17:36:42.320Z,86.33
2022-11-14T17:39:04.000Z,87.57
2022-11-14T17:41:25.491Z,87.01
2022-11-14T17:43:47.000Z,87.29
2022-11-14T17:46:15.676Z,87.88
2022-11-14T17:48:37.884Z,88.62
2022-11-14T17:51:12.940Z,89.57
2022-11-14T17:53:34.637Z,88.06
2022-11-14T17:55:57.384Z,87.65
2022-11-14T17:58:18.806Z,87.99
2022-11-14T18:00:40.530Z,87.92
2022-11-14T18:03:02.042Z,88.02
2022-11-14T18:05:23.775Z,88.02
2022-11-14T18:07:45.194Z,87.05
2022-11-14T18:10:06.987Z,86.84
2022-11-14T18:12:28.427Z,86.56
2022-11-14T18:14:49.865Z,86.60
2022-11-14T18:17:13.362Z,84.93
2022-11-14T18:19:35.081Z,85.68
2022-11-14T18:21:56.559Z,85.82
2022-11-14T18:24:18.093Z,86.82
2022-11-14T18:26:39.569Z,86.50
2022-11-14T18:29:04.370Z,86.13
2022-11-14T18:31:25.890Z,85.76
2022-11-14T18:33:47.427Z,84.76
2022-11-14T18:36:12.102Z,85.44
2022-11-14T18:38:33.907Z,85.89
2022-11-14T18:40:57.501Z,86.04
2022-11-14T18:43:19.251Z,88.33
2022-11-14T18:45:40.669Z,88.55
2022-11-14T18:48:02.111Z,89.81
2022-11-14T18:50:23.542Z,91.17
2022-11-14T18:52:45.030Z,90.84
2022-11-14T18:55:07.961Z,89.15
2022-11-14T18:57:29.416Z,88.79
2022-11-14T18:59:50.900Z,88.44
2022-11-14T19:02:12.368Z,88.50
2022-11-14T19:04:33.913Z,88.65
2022-11-14T19:06:56.302Z,88.24
2022-11-14T19:09:22.713Z,89.10
2022-11-14T19:12:02.364Z,88.70
2022-11-14T19:14:24.114Z,89.04
2022-11-14T19:16:45.591Z,89.62
2022-11-14T19:19:08.583Z,89.35
2022-11-14T19:21:30.448Z,88.58
2022-11-14T19:23:51.955Z,89.55
2022-11-14T19:26:13.501Z,89.49
2022-11-14T19:28:35.272Z,90.05
2022-11-14T19:31:04.822Z,90.06
2022-11-14T19:33:26.286Z,89.42
2022-11-14T19:35:47.711Z,89.17
2022-11-14T19:38:09.203Z,88.70
2022-11-14T19:40:30.934Z,88.04
2022-11-14T19:43:00.231Z,87.76
2022-11-14T19:45:21.643Z,87.33
2022-11-14T19:47:43.094Z,87.38
2022-11-14T19:50:04.815Z,88.37
2022-11-14T19:52:26.282Z,87.85
2022-11-14T19:54:49.135Z,86.76
2022-11-14T19:57:10.564Z,87.34
2022-11-14T19:59:32.035Z,88.34
2022-11-14T20:01:55.214Z,88.36
2022-11-14T20:04:17.073Z,88.87
2022-11-14T20:06:38.549Z,88.94
2022-11-14T20:09:08.931Z,89.05
2022-11-14T20:11:30.989Z,90.42
2022-11-14T20:13:52.511Z,90.89
2022-11-14T20:16:18.965Z,91.04
2022-11-14T20:18:42.271Z,91.13
2022-11-14T20:21:08.789Z,91.75
2022-11-14T20:23:30.585Z,91.29
2022-11-14T20:25:52.912Z,91.58
2022-11-14T20:28:14.622Z,92.34
2022-11-14T20:30:40.144Z,91.34
2022-11-14T20:33:01.591Z,91.64
2022-11-14T20:35:22.994Z,90.17
2022-11-14T20:37:44.433Z,89.72
2022-11-14T20:40:06.567Z,89.38
2022-11-14T20:42:28.005Z,88.79
2022-11-14T20:44:49.513Z,89.00
2022-11-14T20:47:11.442Z,88.08
2022-11-14T20:49:32.963Z,88.06
2022-11-14T20:51:54.553Z,88.48
2022-11-14T20:54:16.378Z,87.77
2022-11-14T20:56:37.876Z,87.56
2022-11-14T20:58:59.311Z,88.10
2022-11-14T21:01:20.935Z,87.87
2022-11-14T21:03:42.441Z,87.79
2022-11-14T21:06:04.558Z,88.32
2022-11-14T21:08:25.991Z,87.70
2022-11-14T21:10:50.662Z,87.88
2022-11-14T21:13:38.160Z,88.01
2022-11-14T21:16:00.653Z,87.68
2022-11-14T21:18:22.074Z,87.55
2022-11-14T21:20:43.561Z,86.35
2022-11-14T21:23:05.049Z,86.15
2022-11-14T21:25:26.624Z,85.82
2022-11-14T21:27:48.161Z,86.02
2022-11-14T21:30:09.873Z,85.72
2022-11-14T21:32:31.336Z,84.91
2022-11-14T21:34:52.801Z,84.99
2022-11-14T21:37:14.275Z,85.18
2022-11-14T21:39:35.767Z,85.35
2022-11-14T21:41:57.230Z,84.92
2022-11-14T21:44:19.202Z,85.08
2022-11-14T21:46:40.953Z,85.00
2022-11-14T21:49:02.380Z,84.62
2022-11-14T21:51:26.746Z,85.06
2022-11-14T21:53:49.369Z,84.69
2022-11-14T21:56:28.721Z,84.39
2022-11-14T21:58:51.388Z,84.69
2022-11-14T22:01:15.569Z,84.56
2022-11-14T22:03:56.288Z,85.08
2022-11-14T22:06:17.756Z,84.49
2022-11-14T22:08:39.179Z,83.46
2022-11-14T22:11:01.498Z,84.04
2022-11-14T22:13:22.945Z,83.39
2022-11-14T22:15:44.400Z,82.61
2022-11-14T22:18:05.837Z,82.03
2022-11-14T22:20:27.314Z,82.44
2022-11-14T22:22:48.807Z,81.77
2022-11-14T22:25:10.343Z,82.08
2022-11-14T22:27:31.802Z,82.10
2022-11-14T22:29:53.244Z,83.06
2022-11-14T22:32:14.679Z,82.51
2022-11-14T22:34:36.109Z,82.01
2022-11-14T22:36:57.570Z,83.46
2022-11-14T22:39:18.984Z,82.95
2022-11-14T22:41:40.692Z,83.76
2022-11-14T22:44:02.427Z,83.56
2022-11-14T22:46:24.385Z,82.96
2022-11-14T22:48:47.037Z,82.63
2022-11-14T22:51:10.962Z,82.62
2022-11-14T22:53:34.592Z,82.32
2022-11-14T22:55:56.525Z,82.99
2022-11-14T22:58:17.987Z,83.64
2022-11-14T23:00:39.504Z,84.65
2022-11-14T23:03:00.980Z,84.81
2022-11-14T23:05:22.454Z,85.57
2022-11-14T23:07:43.897Z,86.55
2022-11-14T23:10:05.800Z,86.64
2022-11-14T23:12:27.249Z,86.10
2022-11-14T23:14:48.674Z,85.59
2022-11-14T23:17:10.117Z,86.10
2022-11-14T23:19:31.564Z,85.51
2022-11-14T23:21:53.886Z,84.51
2022-11-14T23:24:15.677Z,84.21
2022-11-14T23:26:37.120Z,84.18
2022-11-14T23:28:59.072Z,84.23
2022-11-14T23:31:21.250Z,84.46
2022-11-14T23:33:42.698Z,85.19
2022-11-14T23:36:04.795Z,86.24
2022-11-14T23:38:26.426Z,85.71
2022-11-14T23:40:55.402Z,88.14
2022-11-14T23:43:16.861Z,88.08
2022-11-14T23:45:42.510Z,88.86
2022-11-14T23:48:04.093Z,88.54
2022-11-14T23:50:25.543Z,88.63
2022-11-14T23:52:47.016Z,88.32
2022-11-14T23:55:08.463Z,89.31
2022-11-14T23:57:31.090Z,89.24
2022-11-14T23:59:53.078Z,88.22
